Main page
METAR-TAF:

METAR-TAF

Airports :

Cascais Municipal Aerodrome

Cascais, Portugal

latitude: 38-43-32N, longitude: 009-21-19W, elevation: 99 m

Current weather observation

The report was made 14 minutes ago, at 14:30 UTC
Wind 7 kt from the South/Southwest, varying between South and West/Southwest
Temperature 16°C
Humidity 63%
Pressure 1025 hPa
Visibility 10 km or more
Few clouds at a height of 2400 ft

METAR: LPCS 021430Z 21007KT 190V250 9999 FEW024 16/09 Q1025

Time: 14:44 (14:44 UTC)

Forecast

The report was made 44 minutes ago, at 14:00 UTC
Forecast valid from 02 at 15 UTC to 02 at 24 UTC
Wind 7 kt from the West
Visibility 10 km or more
Few clouds at a height of 3500 ft
Becoming
from 02 at 16 UTC to 02 at 18 UTC
Wind 8 kt from the North

TAF: LPCS 021400Z 0215/0224 26007KT 9999 FEW035 BECMG 0216/0218 35008KT

Weather observations and forecasts of more than 4000 airports (METAR and TAF reports).

The available stations are represented by yellow and red dots on the map.

Hover mouse over dot to see the name of the station.

Then click to see weather observations and forecasts.

To change the map : click on the green buttons with a black cross to zoom in, on the green button with a dash to zoom out, or on the green arrows for adjacent maps.


METAR-TAF: